Portada
METAR-TAF:

METAR-TAF

Aeropuertos :

Aurillac, Francia

latitud: 44-53N, longitud: 002-25E, altitud: 639 m

Observación

El informe se hizo hace 39 minutos, a las 04:00 UTC
Viento 3 kt con dirección variable
Temperatura 12°C
Humedad 100%
Presión 1015 hPa
Visibilidad: 0350 m
niebla

METAR: LFLW 210400Z AUTO VRB03KT 0400 0350 R15/0400N FG VV/// 12/12 Q1015

Hora: 06:39 (04:39 UTC)

Pronóstico

El informe se hizo hace 14 horas y 39 minutos, a las 14:00 UTC
Pronóstico válido del 20 a las 15 UTC al 20 a las 24 UTC
Viento 6 kt del oeste-noroeste
Visibilidad 10 km o más
Nubes dispersas a una altura de 1000 ft
Cielo nuboso a una altura de 2000 ft
Probabilidad 40% :
Temporalmente
del 20 a las 15 UTC al 20 a las 18 UTC
Visibilidad: 4500 m
Nubes dispersas a una altura de 800 ft
Cielo nuboso a una altura de 1500 ft, Cumulus congestus.
chaparrones de lluvia

TAF: LFLW 201400Z 2015/2024 30006KT 9999 SCT010 BKN020 PROB40 TEMPO 2015/2018 4500 SHRA SCT008 BKN015TCU

Observaciones y pronósticos meteorológicos de más de 4000 aeropuertos (mensajes METAR y TAF).

Los puntos amarillos y rojos representan las estaciones disponibles.

Ponga el ratón en el punto deseado para ver el nombre de la estación.

Haga clic para ver las observaciones y los pronósticos meteorológicos.

Para cambiar el mapa : haga clic en los botones verdes con una cruz de color negro para hacer un zoom, en el botón verde con un guión para alejar o en las flechas verdes para mapas adyacentes.


METAR-TAF: